sensor_id;sensor_type;location;lat;lon;timestamp;temperature;humidity
16523;DHT22;19889;52.546;13.348;2023-04-03T00:02:06;4.90;99.90
16523;DHT22;19889;52.546;13.348;2023-04-03T00:04:33;4.90;99.90
16523;DHT22;19889;52.546;13.348;2023-04-03T00:07:01;4.90;99.90
16523;DHT22;19889;52.546;13.348;2023-04-03T00:09:28;4.90;99.90
16523;DHT22;19889;52.546;13.348;2023-04-03T00:11:55;5.20;99.90
16523;DHT22;19889;52.546;13.348;2023-04-03T00:14:22;4.90;99.90
16523;DHT22;19889;52.546;13.348;2023-04-03T00:16:49;4.90;99.90
16523;DHT22;19889;52.546;13.348;2023-04-03T00:19:16;4.90;99.90
16523;DHT22;19889;52.546;13.348;2023-04-03T00:21:43;4.80;99.90
16523;DHT22;19889;52.546;13.348;2023-04-03T00:24:12;4.80;99.90
16523;DHT22;19889;52.546;13.348;2023-04-03T00:26:39;4.80;99.90
16523;DHT22;19889;52.546;13.348;2023-04-03T00:29:06;4.80;99.90
16523;DHT22;19889;52.546;13.348;2023-04-03T00:31:32;5.00;99.90
16523;DHT22;19889;52.546;13.348;2023-04-03T00:33:59;4.70;99.90
16523;DHT22;19889;52.546;13.348;2023-04-03T00:36:26;4.70;99.90
16523;DHT22;19889;52.546;13.348;2023-04-03T00:38:54;4.80;99.90
16523;DHT22;19889;52.546;13.348;2023-04-03T00:41:22;4.90;99.90
16523;DHT22;19889;52.546;13.348;2023-04-03T00:43:49;5.20;99.90
16523;DHT22;19889;52.546;13.348;2023-04-03T00:46:16;5.00;99.90
16523;DHT22;19889;52.546;13.348;2023-04-03T00:48:45;4.80;99.90
16523;DHT22;19889;52.546;13.348;2023-04-03T00:51:14;4.80;99.90
16523;DHT22;19889;52.546;13.348;2023-04-03T00:53:45;4.80;99.90
16523;DHT22;19889;52.546;13.348;2023-04-03T00:56:16;4.80;99.90
16523;DHT22;19889;52.546;13.348;2023-04-03T00:58:48;4.80;99.90
16523;DHT22;19889;52.546;13.348;2023-04-03T01:01:19;4.70;99.90
16523;DHT22;19889;52.546;13.348;2023-04-03T01:03:47;4.90;99.90
16523;DHT22;19889;52.546;13.348;2023-04-03T01:06:16;4.80;99.90
16523;DHT22;19889;52.546;13.348;2023-04-03T01:08:47;4.70;99.90
16523;DHT22;19889;52.546;13.348;2023-04-03T01:11:15;4.70;99.90
16523;DHT22;19889;52.546;13.348;2023-04-03T01:13:45;4.70;99.90
16523;DHT22;19889;52.546;13.348;2023-04-03T01:16:12;4.60;99.90
16523;DHT22;19889;52.546;13.348;2023-04-03T01:18:40;4.70;99.90
16523;DHT22;19889;52.546;13.348;2023-04-03T01:21:54;4.60;99.90
16523;DHT22;19889;52.546;13.348;2023-04-03T01:24:32;4.60;99.90
16523;DHT22;19889;52.546;13.348;2023-04-03T01:27:01;4.60;99.90
16523;DHT22;19889;52.546;13.348;2023-04-03T01:29:31;4.60;99.90
16523;DHT22;19889;52.546;13.348;2023-04-03T01:32:00;4.70;99.90
16523;DHT22;19889;52.546;13.348;2023-04-03T01:34:29;4.60;99.90
16523;DHT22;19889;52.546;13.348;2023-04-03T01:36:58;4.70;99.90
16523;DHT22;19889;52.546;13.348;2023-04-03T01:39:26;4.50;99.90
16523;DHT22;19889;52.546;13.348;2023-04-03T01:41:53;4.50;99.90
16523;DHT22;19889;52.546;13.348;2023-04-03T01:44:27;4.50;99.90
16523;DHT22;19889;52.546;13.348;2023-04-03T01:46:54;4.50;99.90
16523;DHT22;19889;52.546;13.348;2023-04-03T01:49:24;4.50;99.90
16523;DHT22;19889;52.546;13.348;2023-04-03T01:51:51;4.40;99.90
16523;DHT22;19889;52.546;13.348;2023-04-03T01:54:18;4.40;99.90
16523;DHT22;19889;52.546;13.348;2023-04-03T01:56:46;4.50;99.90
16523;DHT22;19889;52.546;13.348;2023-04-03T01:59:13;4.40;99.90
16523;DHT22;19889;52.546;13.348;2023-04-03T02:01:43;4.70;99.90
16523;DHT22;19889;52.546;13.348;2023-04-03T02:04:11;4.50;99.90
16523;DHT22;19889;52.546;13.348;2023-04-03T02:06:39;4.50;99.90
16523;DHT22;19889;52.546;13.348;2023-04-03T02:09:06;4.40;99.90
16523;DHT22;19889;52.546;13.348;2023-04-03T02:11:33;4.50;99.90
16523;DHT22;19889;52.546;13.348;2023-04-03T02:14:00;4.40;99.90
16523;DHT22;19889;52.546;13.348;2023-04-03T02:16:28;4.20;99.90
16523;DHT22;19889;52.546;13.348;2023-04-03T02:18:56;4.90;99.90
16523;DHT22;19889;52.546;13.348;2023-04-03T02:21:23;4.40;99.90
16523;DHT22;19889;52.546;13.348;2023-04-03T02:23:51;4.40;99.90
16523;DHT22;19889;52.546;13.348;2023-04-03T02:26:18;4.40;99.90
16523;DHT22;19889;52.546;13.348;2023-04-03T02:28:45;4.40;99.90
16523;DHT22;19889;52.546;13.348;2023-04-03T02:31:12;4.40;99.90
16523;DHT22;19889;52.546;13.348;2023-04-03T02:33:42;5.40;99.90
16523;DHT22;19889;52.546;13.348;2023-04-03T02:36:11;4.40;99.90
16523;DHT22;19889;52.546;13.348;2023-04-03T02:38:41;4.50;99.90
16523;DHT22;19889;52.546;13.348;2023-04-03T02:41:12;4.30;99.90
16523;DHT22;19889;52.546;13.348;2023-04-03T02:43:39;4.40;99.90
16523;DHT22;19889;52.546;13.348;2023-04-03T02:46:07;4.30;99.90
16523;DHT22;19889;52.546;13.348;2023-04-03T02:48:34;4.30;99.90
16523;DHT22;19889;52.546;13.348;2023-04-03T02:51:01;4.30;99.90
16523;DHT22;19889;52.546;13.348;2023-04-03T02:53:28;4.20;99.90
16523;DHT22;19889;52.546;13.348;2023-04-03T02:55:55;4.30;99.90
16523;DHT22;19889;52.546;13.348;2023-04-03T02:58:24;4.30;99.90
16523;DHT22;19889;52.546;13.348;2023-04-03T03:00:53;4.30;99.90
16523;DHT22;19889;52.546;13.348;2023-04-03T03:03:20;4.30;99.90
16523;DHT22;19889;52.546;13.348;2023-04-03T03:05:47;4.30;99.90
16523;DHT22;19889;52.546;13.348;2023-04-03T03:08:14;4.30;99.90
16523;DHT22;19889;52.546;13.348;2023-04-03T03:10:41;4.30;99.90
16523;DHT22;19889;52.546;13.348;2023-04-03T03:13:08;4.50;99.90
16523;DHT22;19889;52.546;13.348;2023-04-03T03:15:36;4.30;99.90
16523;DHT22;19889;52.546;13.348;2023-04-03T03:18:04;4.30;99.90
16523;DHT22;19889;52.546;13.348;2023-04-03T03:20:31;4.20;99.90
16523;DHT22;19889;52.546;13.348;2023-04-03T03:22:58;4.20;99.90
16523;DHT22;19889;52.546;13.348;2023-04-03T03:25:25;4.20;99.90
16523;DHT22;19889;52.546;13.348;2023-04-03T03:27:52;4.20;99.90
16523;DHT22;19889;52.546;13.348;2023-04-03T03:30:19;4.20;99.90
16523;DHT22;19889;52.546;13.348;2023-04-03T03:32:48;4.10;99.90
16523;DHT22;19889;52.546;13.348;2023-04-03T03:35:15;4.10;99.90
16523;DHT22;19889;52.546;13.348;2023-04-03T03:37:42;4.10;99.90
16523;DHT22;19889;52.546;13.348;2023-04-03T03:40:10;4.10;99.90
16523;DHT22;19889;52.546;13.348;2023-04-03T03:42:38;4.10;99.90
16523;DHT22;19889;52.546;13.348;2023-04-03T03:45:06;4.10;99.90
16523;DHT22;19889;52.546;13.348;2023-04-03T03:47:34;4.10;99.90
16523;DHT22;19889;52.546;13.348;2023-04-03T03:50:03;4.00;99.90
16523;DHT22;19889;52.546;13.348;2023-04-03T03:52:31;4.00;99.90
16523;DHT22;19889;52.546;13.348;2023-04-03T03:54:58;4.00;99.90
16523;DHT22;19889;52.546;13.348;2023-04-03T03:57:25;3.90;99.90
16523;DHT22;19889;52.546;13.348;2023-04-03T03:59:54;4.80;99.90
16523;DHT22;19889;52.546;13.348;2023-04-03T04:02:22;3.90;99.90
16523;DHT22;19889;52.546;13.348;2023-04-03T04:04:49;4.00;99.90
16523;DHT22;19889;52.546;13.348;2023-04-03T04:07:18;4.10;99.90
16523;DHT22;19889;52.546;13.348;2023-04-03T04:09:45;3.90;99.90
16523;DHT22;19889;52.546;13.348;2023-04-03T04:12:13;3.80;99.90
16523;DHT22;19889;52.546;13.348;2023-04-03T04:14:41;3.90;99.90
16523;DHT22;19889;52.546;13.348;2023-04-03T04:17:09;3.90;99.90
16523;DHT22;19889;52.546;13.348;2023-04-03T04:19:36;3.90;99.90
16523;DHT22;19889;52.546;13.348;2023-04-03T04:22:04;3.90;99.90
16523;DHT22;19889;52.546;13.348;2023-04-03T04:24:33;4.10;99.90
16523;DHT22;19889;52.546;13.348;2023-04-03T04:27:02;3.90;99.90
16523;DHT22;19889;52.546;13.348;2023-04-03T04:29:31;3.90;99.90
16523;DHT22;19889;52.546;13.348;2023-04-03T04:32:01;3.90;99.90
16523;DHT22;19889;52.546;13.348;2023-04-03T04:34:28;3.90;99.90
16523;DHT22;19889;52.546;13.348;2023-04-03T04:36:56;3.90;99.90
16523;DHT22;19889;52.546;13.348;2023-04-03T04:39:23;3.80;99.90
16523;DHT22;19889;52.546;13.348;2023-04-03T04:41:51;3.90;99.90
16523;DHT22;19889;52.546;13.348;2023-04-03T04:44:18;3.90;99.90
16523;DHT22;19889;52.546;13.348;2023-04-03T04:46:46;3.90;99.90
16523;DHT22;19889;52.546;13.348;2023-04-03T04:49:13;3.90;99.90
16523;DHT22;19889;52.546;13.348;2023-04-03T04:51:40;3.80;99.90
16523;DHT22;19889;52.546;13.348;2023-04-03T04:54:08;3.90;99.90
16523;DHT22;19889;52.546;13.348;2023-04-03T04:56:36;3.90;99.90
16523;DHT22;19889;52.546;13.348;2023-04-03T04:59:04;3.90;99.90
16523;DHT22;19889;52.546;13.348;2023-04-03T05:01:32;3.90;99.90
16523;DHT22;19889;52.546;13.348;2023-04-03T05:04:12;3.90;99.90
16523;DHT22;19889;52.546;13.348;2023-04-03T05:06:39;4.00;99.90
16523;DHT22;19889;52.546;13.348;2023-04-03T05:09:11;3.90;99.90
16523;DHT22;19889;52.546;13.348;2023-04-03T05:11:40;3.90;99.90
16523;DHT22;19889;52.546;13.348;2023-04-03T05:14:10;3.90;99.90
16523;DHT22;19889;52.546;13.348;2023-04-03T05:16:37;3.90;99.90
16523;DHT22;19889;52.546;13.348;2023-04-03T05:19:06;3.80;99.90
16523;DHT22;19889;52.546;13.348;2023-04-03T05:21:33;3.90;99.90
16523;DHT22;19889;52.546;13.348;2023-04-03T05:24:06;3.90;99.90
16523;DHT22;19889;52.546;13.348;2023-04-03T05:26:37;3.90;99.90
16523;DHT22;19889;52.546;13.348;2023-04-03T05:29:05;3.70;99.90
16523;DHT22;19889;52.546;13.348;2023-04-03T05:31:34;4.00;99.90
16523;DHT22;19889;52.546;13.348;2023-04-03T05:34:01;3.90;99.90
16523;DHT22;19889;52.546;13.348;2023-04-03T05:36:32;4.00;99.90
16523;DHT22;19889;52.546;13.348;2023-04-03T05:39:03;3.90;99.90
16523;DHT22;19889;52.546;13.348;2023-04-03T05:41:31;3.90;99.90
16523;DHT22;19889;52.546;13.348;2023-04-03T05:43:58;4.00;99.90
16523;DHT22;19889;52.546;13.348;2023-04-03T05:46:25;4.30;99.90
16523;DHT22;19889;52.546;13.348;2023-04-03T05:48:57;4.00;99.90
16523;DHT22;19889;52.546;13.348;2023-04-03T05:51:31;4.10;99.90
16523;DHT22;19889;52.546;13.348;2023-04-03T05:54:09;4.00;99.90
16523;DHT22;19889;52.546;13.348;2023-04-03T05:56:39;4.00;99.90
16523;DHT22;19889;52.546;13.348;2023-04-03T05:59:07;4.00;99.90
16523;DHT22;19889;52.546;13.348;2023-04-03T06:01:34;4.00;99.90
16523;DHT22;19889;52.546;13.348;2023-04-03T06:04:03;4.00;99.90
16523;DHT22;19889;52.546;13.348;2023-04-03T06:06:43;4.00;99.90
16523;DHT22;19889;52.546;13.348;2023-04-03T06:09:10;4.30;99.90
16523;DHT22;19889;52.546;13.348;2023-04-03T06:11:37;4.00;99.90
16523;DHT22;19889;52.546;13.348;2023-04-03T06:14:04;4.00;99.90
16523;DHT22;19889;52.546;13.348;2023-04-03T06:16:32;4.00;99.90
16523;DHT22;19889;52.546;13.348;2023-04-03T06:18:59;4.00;99.90
16523;DHT22;19889;52.546;13.348;2023-04-03T06:21:28;4.00;99.90
16523;DHT22;19889;52.546;13.348;2023-04-03T06:23:55;4.00;99.90
16523;DHT22;19889;52.546;13.348;2023-04-03T06:26:22;4.00;99.90
16523;DHT22;19889;52.546;13.348;2023-04-03T06:28:50;4.00;99.90
16523;DHT22;19889;52.546;13.348;2023-04-03T06:31:17;4.10;99.90
16523;DHT22;19889;52.546;13.348;2023-04-03T06:33:44;4.10;99.90
16523;DHT22;19889;52.546;13.348;2023-04-03T06:36:11;4.10;99.90
16523;DHT22;19889;52.546;13.348;2023-04-03T06:38:40;4.10;99.90
16523;DHT22;19889;52.546;13.348;2023-04-03T06:41:07;4.10;99.90
16523;DHT22;19889;52.546;13.348;2023-04-03T06:43:34;4.20;99.90
16523;DHT22;19889;52.546;13.348;2023-04-03T06:46:01;4.20;99.90
16523;DHT22;19889;52.546;13.348;2023-04-03T06:48:29;4.20;99.90
16523;DHT22;19889;52.546;13.348;2023-04-03T06:50:56;4.30;99.90
16523;DHT22;19889;52.546;13.348;2023-04-03T06:53:23;4.30;99.90
16523;DHT22;19889;52.546;13.348;2023-04-03T06:55:52;4.30;99.90
16523;DHT22;19889;52.546;13.348;2023-04-03T06:58:19;4.20;99.90
16523;DHT22;19889;52.546;13.348;2023-04-03T07:00:46;4.30;99.90
16523;DHT22;19889;52.546;13.348;2023-04-03T07:03:13;4.50;99.90
16523;DHT22;19889;52.546;13.348;2023-04-03T07:05:41;2.80;99.90
16523;DHT22;19889;52.546;13.348;2023-04-03T07:08:10;4.80;99.90
16523;DHT22;19889;52.546;13.348;2023-04-03T07:10:40;5.00;99.90
16523;DHT22;19889;52.546;13.348;2023-04-03T07:13:09;5.00;99.90
16523;DHT22;19889;52.546;13.348;2023-04-03T07:15:37;5.20;99.90
16523;DHT22;19889;52.546;13.348;2023-04-03T07:18:04;5.40;99.90
16523;DHT22;19889;52.546;13.348;2023-04-03T07:20:32;5.50;99.90
16523;DHT22;19889;52.546;13.348;2023-04-03T07:23:00;5.60;99.90
16523;DHT22;19889;52.546;13.348;2023-04-03T07:25:28;6.20;99.90
16523;DHT22;19889;52.546;13.348;2023-04-03T07:27:56;5.60;99.90
16523;DHT22;19889;52.546;13.348;2023-04-03T07:30:25;6.40;99.90
16523;DHT22;19889;52.546;13.348;2023-04-03T07:32:53;5.60;99.90
16523;DHT22;19889;52.546;13.348;2023-04-03T07:35:21;5.60;99.90
16523;DHT22;19889;52.546;13.348;2023-04-03T07:37:49;5.70;99.90
16523;DHT22;19889;52.546;13.348;2023-04-03T07:40:16;5.60;99.90
16523;DHT22;19889;52.546;13.348;2023-04-03T07:42:44;5.60;99.90
16523;DHT22;19889;52.546;13.348;2023-04-03T07:45:11;5.90;99.90
16523;DHT22;19889;52.546;13.348;2023-04-03T07:47:39;6.20;99.90
16523;DHT22;19889;52.546;13.348;2023-04-03T07:50:07;6.60;99.90
16523;DHT22;19889;52.546;13.348;2023-04-03T07:52:35;6.80;99.90
16523;DHT22;19889;52.546;13.348;2023-04-03T07:55:02;6.80;99.90
16523;DHT22;19889;52.546;13.348;2023-04-03T07:57:29;6.90;99.90
16523;DHT22;19889;52.546;13.348;2023-04-03T07:59:56;6.60;99.90
16523;DHT22;19889;52.546;13.348;2023-04-03T08:02:23;6.90;99.90
16523;DHT22;19889;52.546;13.348;2023-04-03T08:04:52;6.70;99.90
16523;DHT22;19889;52.546;13.348;2023-04-03T08:07:19;6.60;99.90
16523;DHT22;19889;52.546;13.348;2023-04-03T08:09:46;6.60;99.90
16523;DHT22;19889;52.546;13.348;2023-04-03T08:12:13;6.90;99.90
16523;DHT22;19889;52.546;13.348;2023-04-03T08:14:40;6.70;99.90
16523;DHT22;19889;52.546;13.348;2023-04-03T08:17:08;6.90;99.90
16523;DHT22;19889;52.546;13.348;2023-04-03T08:19:37;7.00;99.90
16523;DHT22;19889;52.546;13.348;2023-04-03T08:22:05;7.10;99.90
16523;DHT22;19889;52.546;13.348;2023-04-03T08:24:33;7.00;99.90
16523;DHT22;19889;52.546;13.348;2023-04-03T08:27:00;7.30;99.90
16523;DHT22;19889;52.546;13.348;2023-04-03T08:29:27;7.00;99.90
16523;DHT22;19889;52.546;13.348;2023-04-03T08:31:54;6.90;99.90
16523;DHT22;19889;52.546;13.348;2023-04-03T08:34:22;6.80;99.90
16523;DHT22;19889;52.546;13.348;2023-04-03T08:36:49;6.70;99.90
16523;DHT22;19889;52.546;13.348;2023-04-03T08:39:17;6.60;99.90
16523;DHT22;19889;52.546;13.348;2023-04-03T08:41:45;6.50;99.90
16523;DHT22;19889;52.546;13.348;2023-04-03T08:44:17;6.40;99.90
16523;DHT22;19889;52.546;13.348;2023-04-03T08:47:02;6.40;99.90
16523;DHT22;19889;52.546;13.348;2023-04-03T08:49:33;6.30;99.90
16523;DHT22;19889;52.546;13.348;2023-04-03T08:52:05;6.30;99.90
16523;DHT22;19889;52.546;13.348;2023-04-03T08:54:45;6.20;99.90
16523;DHT22;19889;52.546;13.348;2023-04-03T08:57:15;6.20;99.90
16523;DHT22;19889;52.546;13.348;2023-04-03T08:59:42;6.10;99.90
16523;DHT22;19889;52.546;13.348;2023-04-03T09:02:22;6.10;99.90
16523;DHT22;19889;52.546;13.348;2023-04-03T09:04:50;6.10;99.90
16523;DHT22;19889;52.546;13.348;2023-04-03T09:07:21;6.10;99.90
16523;DHT22;19889;52.546;13.348;2023-04-03T09:09:50;6.10;99.90
16523;DHT22;19889;52.546;13.348;2023-04-03T09:12:22;5.90;99.90
16523;DHT22;19889;52.546;13.348;2023-04-03T09:14:59;6.10;99.90
16523;DHT22;19889;52.546;13.348;2023-04-03T09:17:39;6.00;99.90
16523;DHT22;19889;52.546;13.348;2023-04-03T09:20:14;6.20;99.90
16523;DHT22;19889;52.546;13.348;2023-04-03T09:22:44;6.20;99.90
16523;DHT22;19889;52.546;13.348;2023-04-03T09:25:15;6.30;99.90
16523;DHT22;19889;52.546;13.348;2023-04-03T09:27:44;6.40;99.90
16523;DHT22;19889;52.546;13.348;2023-04-03T09:30:13;6.40;99.90
16523;DHT22;19889;52.546;13.348;2023-04-03T09:32:41;6.50;99.90
16523;DHT22;19889;52.546;13.348;2023-04-03T09:35:18;6.70;99.90
16523;DHT22;19889;52.546;13.348;2023-04-03T09:37:46;7.00;99.90
16523;DHT22;19889;52.546;13.348;2023-04-03T09:40:39;6.50;99.70
16523;DHT22;19889;52.546;13.348;2023-04-03T09:43:25;6.50;99.70
16523;DHT22;19889;52.546;13.348;2023-04-03T09:45:53;6.50;99.80
16523;DHT22;19889;52.546;13.348;2023-04-03T09:48:22;6.50;99.80
16523;DHT22;19889;52.546;13.348;2023-04-03T09:50:55;6.90;99.90
16523;DHT22;19889;52.546;13.348;2023-04-03T09:53:33;6.70;99.90
16523;DHT22;19889;52.546;13.348;2023-04-03T09:56:04;6.70;99.40
16523;DHT22;19889;52.546;13.348;2023-04-03T09:58:36;6.70;99.10
16523;DHT22;19889;52.546;13.348;2023-04-03T10:01:04;6.70;98.50
16523;DHT22;19889;52.546;13.348;2023-04-03T10:03:34;6.90;98.40
16523;DHT22;19889;52.546;13.348;2023-04-03T10:06:02;6.50;97.90
16523;DHT22;19889;52.546;13.348;2023-04-03T10:08:31;6.40;98.00
16523;DHT22;19889;52.546;13.348;2023-04-03T10:11:14;6.50;98.10
16523;DHT22;19889;52.546;13.348;2023-04-03T10:13:53;6.50;97.70
16523;DHT22;19889;52.546;13.348;2023-04-03T10:16:25;6.50;97.80
16523;DHT22;19889;52.546;13.348;2023-04-03T10:19:03;6.60;98.10
16523;DHT22;19889;52.546;13.348;2023-04-03T10:21:38;6.60;98.10
16523;DHT22;19889;52.546;13.348;2023-04-03T10:24:12;7.10;98.30
16523;DHT22;19889;52.546;13.348;2023-04-03T10:26:49;6.60;98.20
16523;DHT22;19889;52.546;13.348;2023-04-03T10:29:28;6.80;98.30
16523;DHT22;19889;52.546;13.348;2023-04-03T10:32:03;6.80;98.30
16523;DHT22;19889;52.546;13.348;2023-04-03T10:34:35;6.80;97.90
16523;DHT22;19889;52.546;13.348;2023-04-03T10:37:12;6.80;98.00
16523;DHT22;19889;52.546;13.348;2023-04-03T10:39:46;6.90;98.00
16523;DHT22;19889;52.546;13.348;2023-04-03T10:42:23;7.00;98.20
16523;DHT22;19889;52.546;13.348;2023-04-03T10:45:02;7.00;97.80
16523;DHT22;19889;52.546;13.348;2023-04-03T10:47:36;7.00;97.20
16523;DHT22;19889;52.546;13.348;2023-04-03T10:50:15;7.00;97.30
16523;DHT22;19889;52.546;13.348;2023-04-03T10:52:54;6.90;96.90
16523;DHT22;19889;52.546;13.348;2023-04-03T10:55:30;6.90;96.80
16523;DHT22;19889;52.546;13.348;2023-04-03T10:58:02;6.90;96.70
16523;DHT22;19889;52.546;13.348;2023-04-03T11:00:35;6.90;96.70
16523;DHT22;19889;52.546;13.348;2023-04-03T11:03:06;6.90;96.60
16523;DHT22;19889;52.546;13.348;2023-04-03T11:05:40;6.90;96.60
16523;DHT22;19889;52.546;13.348;2023-04-03T11:08:28;7.00;96.50
16523;DHT22;19889;52.546;13.348;2023-04-03T11:11:00;7.00;96.60
16523;DHT22;19889;52.546;13.348;2023-04-03T11:13:33;7.00;96.40
16523;DHT22;19889;52.546;13.348;2023-04-03T11:16:02;7.00;96.20
16523;DHT22;19889;52.546;13.348;2023-04-03T11:18:36;6.90;95.90
16523;DHT22;19889;52.546;13.348;2023-04-03T11:21:07;6.90;95.80
16523;DHT22;19889;52.546;13.348;2023-04-03T11:23:38;6.80;96.10
16523;DHT22;19889;52.546;13.348;2023-04-03T11:26:11;6.80;96.10
16523;DHT22;19889;52.546;13.348;2023-04-03T11:28:41;6.70;96.30
16523;DHT22;19889;52.546;13.348;2023-04-03T11:31:24;6.80;96.50
16523;DHT22;19889;52.546;13.348;2023-04-03T11:34:02;7.40;96.70
16523;DHT22;19889;52.546;13.348;2023-04-03T11:36:32;7.80;96.90
16523;DHT22;19889;52.546;13.348;2023-04-03T11:39:02;7.80;96.60
16523;DHT22;19889;52.546;13.348;2023-04-03T11:41:31;6.80;96.40
16523;DHT22;19889;52.546;13.348;2023-04-03T11:44:02;6.90;97.00
16523;DHT22;19889;52.546;13.348;2023-04-03T11:46:49;6.80;96.80
16523;DHT22;19889;52.546;13.348;2023-04-03T11:49:50;6.90;96.70
16523;DHT22;19889;52.546;13.348;2023-04-03T11:55:41;6.80;96.90
16523;DHT22;19889;52.546;13.348;2023-04-03T11:58:14;6.90;97.00
16523;DHT22;19889;52.546;13.348;2023-04-03T12:01:08;6.90;96.90
16523;DHT22;19889;52.546;13.348;2023-04-03T12:06:59;6.80;96.80
16523;DHT22;19889;52.546;13.348;2023-04-03T12:09:31;6.70;96.80
16523;DHT22;19889;52.546;13.348;2023-04-03T12:12:01;7.10;96.90
16523;DHT22;19889;52.546;13.348;2023-04-03T12:14:47;6.70;97.00
16523;DHT22;19889;52.546;13.348;2023-04-03T12:17:22;6.70;97.10
16523;DHT22;19889;52.546;13.348;2023-04-03T12:19:50;6.70;97.00
16523;DHT22;19889;52.546;13.348;2023-04-03T12:22:19;6.70;97.10
16523;DHT22;19889;52.546;13.348;2023-04-03T12:24:48;6.70;97.30
16523;DHT22;19889;52.546;13.348;2023-04-03T12:27:21;6.70;97.30
16523;DHT22;19889;52.546;13.348;2023-04-03T12:29:54;6.70;97.20
16523;DHT22;19889;52.546;13.348;2023-04-03T12:32:43;7.30;97.20
16523;DHT22;19889;52.546;13.348;2023-04-03T12:35:21;6.70;97.10
16523;DHT22;19889;52.546;13.348;2023-04-03T12:38:22;6.50;97.10
16523;DHT22;19889;52.546;13.348;2023-04-03T12:40:58;6.70;97.40
16523;DHT22;19889;52.546;13.348;2023-04-03T12:43:42;6.70;97.50
16523;DHT22;19889;52.546;13.348;2023-04-03T12:46:14;6.70;97.10
16523;DHT22;19889;52.546;13.348;2023-04-03T12:48:49;6.70;97.10
16523;DHT22;19889;52.546;13.348;2023-04-03T12:51:20;7.00;97.20
16523;DHT22;19889;52.546;13.348;2023-04-03T12:53:49;6.80;96.80
16523;DHT22;19889;52.546;13.348;2023-04-03T12:56:23;7.30;96.90
16523;DHT22;19889;52.546;13.348;2023-04-03T12:58:51;6.80;96.40
16523;DHT22;19889;52.546;13.348;2023-04-03T13:01:21;6.80;96.50
16523;DHT22;19889;52.546;13.348;2023-04-03T13:03:53;6.80;96.80
16523;DHT22;19889;52.546;13.348;2023-04-03T13:06:23;8.00;97.10
16523;DHT22;19889;52.546;13.348;2023-04-03T13:08:52;6.90;96.70
16523;DHT22;19889;52.546;13.348;2023-04-03T13:11:20;6.90;96.70
16523;DHT22;19889;52.546;13.348;2023-04-03T13:13:55;6.90;96.70
16523;DHT22;19889;52.546;13.348;2023-04-03T13:16:22;7.00;96.70
16523;DHT22;19889;52.546;13.348;2023-04-03T13:18:53;6.90;96.90
16523;DHT22;19889;52.546;13.348;2023-04-03T13:21:22;6.90;96.80
16523;DHT22;19889;52.546;13.348;2023-04-03T13:23:52;6.90;97.00
16523;DHT22;19889;52.546;13.348;2023-04-03T13:26:22;6.90;97.00
16523;DHT22;19889;52.546;13.348;2023-04-03T13:28:52;6.90;96.90
16523;DHT22;19889;52.546;13.348;2023-04-03T13:31:23;6.90;96.90
16523;DHT22;19889;52.546;13.348;2023-04-03T13:33:57;6.90;96.80
16523;DHT22;19889;52.546;13.348;2023-04-03T13:36:27;6.90;96.90
16523;DHT22;19889;52.546;13.348;2023-04-03T13:39:02;6.90;96.90
16523;DHT22;19889;52.546;13.348;2023-04-03T13:41:32;6.90;96.60
16523;DHT22;19889;52.546;13.348;2023-04-03T13:44:15;7.00;96.90
16523;DHT22;19889;52.546;13.348;2023-04-03T13:46:43;6.80;96.80
16523;DHT22;19889;52.546;13.348;2023-04-03T13:49:30;6.80;96.90
16523;DHT22;19889;52.546;13.348;2023-04-03T13:52:02;7.50;97.20
16523;DHT22;19889;52.546;13.348;2023-04-03T13:54:32;6.80;96.90
16523;DHT22;19889;52.546;13.348;2023-04-03T13:57:00;7.60;97.00
16523;DHT22;19889;52.546;13.348;2023-04-03T13:59:30;6.80;97.00
16523;DHT22;19889;52.546;13.348;2023-04-03T14:02:14;6.80;97.10
16523;DHT22;19889;52.546;13.348;2023-04-03T14:04:51;6.80;97.10
16523;DHT22;19889;52.546;13.348;2023-04-03T14:07:22;6.80;97.10
16523;DHT22;19889;52.546;13.348;2023-04-03T14:09:49;7.00;97.30
16523;DHT22;19889;52.546;13.348;2023-04-03T14:12:18;6.90;97.10
16523;DHT22;19889;52.546;13.348;2023-04-03T14:14:47;6.80;97.10
16523;DHT22;19889;52.546;13.348;2023-04-03T14:17:17;6.90;97.20
16523;DHT22;19889;52.546;13.348;2023-04-03T14:19:47;7.10;97.30
16523;DHT22;19889;52.546;13.348;2023-04-03T14:22:16;7.30;97.30
16523;DHT22;19889;52.546;13.348;2023-04-03T14:24:44;6.90;97.20
16523;DHT22;19889;52.546;13.348;2023-04-03T14:27:17;6.90;97.10
16523;DHT22;19889;52.546;13.348;2023-04-03T14:29:45;6.80;97.00
16523;DHT22;19889;52.546;13.348;2023-04-03T14:32:13;6.30;96.70
16523;DHT22;19889;52.546;13.348;2023-04-03T14:34:40;6.90;97.00
16523;DHT22;19889;52.546;13.348;2023-04-03T14:37:12;6.90;97.20
16523;DHT22;19889;52.546;13.348;2023-04-03T14:39:39;6.70;97.20
16523;DHT22;19889;52.546;13.348;2023-04-03T14:42:09;6.50;97.30
16523;DHT22;19889;52.546;13.348;2023-04-03T14:44:38;6.90;97.50
16523;DHT22;19889;52.546;13.348;2023-04-03T14:47:05;6.70;97.50
16523;DHT22;19889;52.546;13.348;2023-04-03T14:49:32;7.00;97.50
16523;DHT22;19889;52.546;13.348;2023-04-03T14:51:59;7.40;97.80
16523;DHT22;19889;52.546;13.348;2023-04-03T14:54:27;6.90;97.50
16523;DHT22;19889;52.546;13.348;2023-04-03T14:56:55;6.80;97.50
16523;DHT22;19889;52.546;13.348;2023-04-03T14:59:30;6.80;97.50
16523;DHT22;19889;52.546;13.348;2023-04-03T15:01:58;6.80;97.60
16523;DHT22;19889;52.546;13.348;2023-04-03T15:04:25;6.80;97.70
16523;DHT22;19889;52.546;13.348;2023-04-03T15:06:53;6.80;97.80
16523;DHT22;19889;52.546;13.348;2023-04-03T15:09:22;6.80;97.90
16523;DHT22;19889;52.546;13.348;2023-04-03T15:11:52;6.80;98.00
16523;DHT22;19889;52.546;13.348;2023-04-03T15:14:20;7.20;98.30
16523;DHT22;19889;52.546;13.348;2023-04-03T15:16:48;6.90;98.20
16523;DHT22;19889;52.546;13.348;2023-04-03T15:19:15;6.70;98.00
16523;DHT22;19889;52.546;13.348;2023-04-03T15:21:42;6.80;98.20
16523;DHT22;19889;52.546;13.348;2023-04-03T15:24:09;6.80;98.30
16523;DHT22;19889;52.546;13.348;2023-04-03T15:26:36;6.70;98.30
16523;DHT22;19889;52.546;13.348;2023-04-03T15:29:06;6.80;98.60
16523;DHT22;19889;52.546;13.348;2023-04-03T15:31:33;6.80;98.80
16523;DHT22;19889;52.546;13.348;2023-04-03T15:34:00;6.80;98.90
16523;DHT22;19889;52.546;13.348;2023-04-03T15:36:27;6.70;98.80
16523;DHT22;19889;52.546;13.348;2023-04-03T15:38:54;7.00;99.00
16523;DHT22;19889;52.546;13.348;2023-04-03T15:41:21;6.90;99.00
16523;DHT22;19889;52.546;13.348;2023-04-03T15:43:48;6.70;98.70
16523;DHT22;19889;52.546;13.348;2023-04-03T15:46:17;6.50;98.70
16523;DHT22;19889;52.546;13.348;2023-04-03T15:48:44;6.70;99.20
16523;DHT22;19889;52.546;13.348;2023-04-03T15:51:11;6.70;98.90
16523;DHT22;19889;52.546;13.348;2023-04-03T15:53:38;6.70;98.90
16523;DHT22;19889;52.546;13.348;2023-04-03T15:56:05;6.70;98.80